Richmond's Hourly Summary for Tuesday, March 14, 2017
Hour Temp
(f)
RH
(%)
Solar Rad.
(MJ/m2)
Rainfall
(in)
Wind
(mph)
3/14/2017 12:00 AM 53 80 0 0 0.3
3/14/2017 1:00 AM 51 80 0 0 0.17
3/14/2017 2:00 AM 49 93 0 0 0.15
3/14/2017 3:00 AM 49 83 0 0 2.45
3/14/2017 4:00 AM 50 81 0 0 4.77
3/14/2017 5:00 AM 49 73 0 0 4.44
3/14/2017 6:00 AM 47 73 0 0 2.43
3/14/2017 7:00 AM 45 76 0 0 0.96
3/14/2017 8:00 AM 44 66 0.02 0 3.27
3/14/2017 9:00 AM 47 50 0.31 0 5.58
3/14/2017 10:00 AM 50 47 1.37 0 5.95
3/14/2017 11:00 AM 53 41 2.11 0 5.83
3/14/2017 12:00 PM 56 37 2.7 0 4.27
3/14/2017 1:00 PM 60 35 3.06 0 3.61
3/14/2017 2:00 PM 62 33 3.19 0 2.98
3/14/2017 3:00 PM 65 29 3.07 0 2.94
3/14/2017 4:00 PM 67 27 2.71 0 3.11
3/14/2017 5:00 PM 67 27 2.16 0 3.59
3/14/2017 6:00 PM 68 29 1.44 0 3.5
3/14/2017 7:00 PM 68 27 0.68 0 4.25
3/14/2017 8:00 PM 65 33 0.08 0 2.58
3/14/2017 9:00 PM 59 55 0 0 6.04
3/14/2017 10:00 PM 56 74 0 0 2.56
3/14/2017 11:00 PM 54 81 0 0 1.38
Data Summary 55 55 22.90 0.00 3.21